sensor_id;sensor_type;location;lat;lon;timestamp;P1;durP1;ratioP1;P2;durP2;ratioP2
2299;SDS011;1158;48.750;9.078;2023-04-24T00:01:45;2.60;;;1.50;;
2299;SDS011;1158;48.750;9.078;2023-04-24T00:04:12;2.60;;;1.40;;
2299;SDS011;1158;48.750;9.078;2023-04-24T00:06:41;3.50;;;1.57;;
2299;SDS011;1158;48.750;9.078;2023-04-24T00:09:08;4.60;;;1.67;;
2299;SDS011;1158;48.750;9.078;2023-04-24T00:11:35;3.20;;;1.43;;
2299;SDS011;1158;48.750;9.078;2023-04-24T00:14:02;3.07;;;1.40;;
2299;SDS011;1158;48.750;9.078;2023-04-24T00:16:29;4.33;;;1.40;;
2299;SDS011;1158;48.750;9.078;2023-04-24T00:18:57;6.40;;;1.63;;
2299;SDS011;1158;48.750;9.078;2023-04-24T00:21:25;3.90;;;2.00;;
2299;SDS011;1158;48.750;9.078;2023-04-24T00:23:52;2.50;;;1.30;;
2299;SDS011;1158;48.750;9.078;2023-04-24T00:26:19;5.20;;;1.60;;
2299;SDS011;1158;48.750;9.078;2023-04-24T00:28:46;2.33;;;1.23;;
2299;SDS011;1158;48.750;9.078;2023-04-24T00:31:13;1.93;;;1.30;;
2299;SDS011;1158;48.750;9.078;2023-04-24T00:33:39;2.17;;;1.33;;
2299;SDS011;1158;48.750;9.078;2023-04-24T00:36:08;2.40;;;1.23;;
2299;SDS011;1158;48.750;9.078;2023-04-24T00:38:34;4.37;;;1.60;;
2299;SDS011;1158;48.750;9.078;2023-04-24T00:41:01;4.07;;;1.67;;
2299;SDS011;1158;48.750;9.078;2023-04-24T00:43:28;3.07;;;1.53;;
2299;SDS011;1158;48.750;9.078;2023-04-24T00:45:55;1.87;;;1.27;;
2299;SDS011;1158;48.750;9.078;2023-04-24T00:48:22;3.00;;;1.10;;
2299;SDS011;1158;48.750;9.078;2023-04-24T00:50:49;3.50;;;1.30;;
2299;SDS011;1158;48.750;9.078;2023-04-24T00:53:17;1.90;;;1.07;;
2299;SDS011;1158;48.750;9.078;2023-04-24T00:55:44;2.37;;;1.40;;
2299;SDS011;1158;48.750;9.078;2023-04-24T00:58:12;3.37;;;1.30;;
2299;SDS011;1158;48.750;9.078;2023-04-24T01:00:39;3.27;;;1.27;;
2299;SDS011;1158;48.750;9.078;2023-04-24T01:03:06;3.43;;;1.47;;
2299;SDS011;1158;48.750;9.078;2023-04-24T01:05:33;3.60;;;1.60;;
2299;SDS011;1158;48.750;9.078;2023-04-24T01:08:00;2.50;;;1.20;;
2299;SDS011;1158;48.750;9.078;2023-04-24T01:10:29;5.40;;;1.23;;
2299;SDS011;1158;48.750;9.078;2023-04-24T01:12:59;2.00;;;1.30;;
2299;SDS011;1158;48.750;9.078;2023-04-24T01:15:25;2.23;;;1.20;;
2299;SDS011;1158;48.750;9.078;2023-04-24T01:17:52;5.30;;;2.07;;
2299;SDS011;1158;48.750;9.078;2023-04-24T01:20:19;2.70;;;1.70;;
2299;SDS011;1158;48.750;9.078;2023-04-24T01:22:47;3.00;;;1.23;;
2299;SDS011;1158;48.750;9.078;2023-04-24T01:25:14;2.30;;;1.30;;
2299;SDS011;1158;48.750;9.078;2023-04-24T01:27:41;6.63;;;1.47;;
2299;SDS011;1158;48.750;9.078;2023-04-24T01:30:08;3.40;;;1.33;;
2299;SDS011;1158;48.750;9.078;2023-04-24T01:32:36;3.90;;;1.23;;
2299;SDS011;1158;48.750;9.078;2023-04-24T01:35:04;4.43;;;1.50;;
2299;SDS011;1158;48.750;9.078;2023-04-24T01:37:32;3.80;;;1.60;;
2299;SDS011;1158;48.750;9.078;2023-04-24T01:40:00;2.40;;;1.53;;
2299;SDS011;1158;48.750;9.078;2023-04-24T01:42:28;2.97;;;1.77;;
2299;SDS011;1158;48.750;9.078;2023-04-24T01:44:55;2.60;;;1.33;;
2299;SDS011;1158;48.750;9.078;2023-04-24T01:47:23;4.93;;;1.60;;
2299;SDS011;1158;48.750;9.078;2023-04-24T01:49:50;3.53;;;1.30;;
2299;SDS011;1158;48.750;9.078;2023-04-24T01:52:17;2.63;;;1.40;;
2299;SDS011;1158;48.750;9.078;2023-04-24T01:54:44;3.13;;;1.40;;
2299;SDS011;1158;48.750;9.078;2023-04-24T01:57:15;2.13;;;1.40;;
2299;SDS011;1158;48.750;9.078;2023-04-24T01:59:42;1.90;;;1.23;;
2299;SDS011;1158;48.750;9.078;2023-04-24T02:02:09;4.27;;;1.90;;
2299;SDS011;1158;48.750;9.078;2023-04-24T02:04:36;3.50;;;1.40;;
2299;SDS011;1158;48.750;9.078;2023-04-24T02:07:02;2.40;;;1.50;;
2299;SDS011;1158;48.750;9.078;2023-04-24T02:09:29;2.00;;;1.33;;
2299;SDS011;1158;48.750;9.078;2023-04-24T02:11:56;4.90;;;1.73;;
2299;SDS011;1158;48.750;9.078;2023-04-24T02:14:24;2.57;;;1.50;;
2299;SDS011;1158;48.750;9.078;2023-04-24T02:16:51;2.10;;;1.33;;
2299;SDS011;1158;48.750;9.078;2023-04-24T02:19:18;2.63;;;1.20;;
2299;SDS011;1158;48.750;9.078;2023-04-24T02:21:45;3.27;;;1.50;;
2299;SDS011;1158;48.750;9.078;2023-04-24T02:24:11;3.23;;;1.60;;
2299;SDS011;1158;48.750;9.078;2023-04-24T02:26:38;2.57;;;1.30;;
2299;SDS011;1158;48.750;9.078;2023-04-24T02:29:05;4.13;;;2.17;;
2299;SDS011;1158;48.750;9.078;2023-04-24T02:31:33;3.47;;;1.43;;
2299;SDS011;1158;48.750;9.078;2023-04-24T02:33:59;2.50;;;1.40;;
2299;SDS011;1158;48.750;9.078;2023-04-24T02:36:26;2.87;;;1.37;;
2299;SDS011;1158;48.750;9.078;2023-04-24T02:38:53;5.77;;;1.70;;
2299;SDS011;1158;48.750;9.078;2023-04-24T02:41:19;3.40;;;1.87;;
2299;SDS011;1158;48.750;9.078;2023-04-24T02:43:46;9.87;;;1.73;;
2299;SDS011;1158;48.750;9.078;2023-04-24T02:46:13;3.07;;;1.50;;
2299;SDS011;1158;48.750;9.078;2023-04-24T02:48:41;4.40;;;1.40;;
2299;SDS011;1158;48.750;9.078;2023-04-24T02:51:07;4.10;;;1.77;;
2299;SDS011;1158;48.750;9.078;2023-04-24T02:53:34;3.40;;;1.30;;
2299;SDS011;1158;48.750;9.078;2023-04-24T02:56:01;6.70;;;1.50;;
2299;SDS011;1158;48.750;9.078;2023-04-24T02:58:28;6.73;;;1.73;;
2299;SDS011;1158;48.750;9.078;2023-04-24T03:00:55;3.73;;;1.90;;
2299;SDS011;1158;48.750;9.078;2023-04-24T03:03:22;4.20;;;1.20;;
2299;SDS011;1158;48.750;9.078;2023-04-24T03:05:51;3.70;;;1.63;;
2299;SDS011;1158;48.750;9.078;2023-04-24T03:08:18;2.83;;;1.60;;
2299;SDS011;1158;48.750;9.078;2023-04-24T03:10:45;4.40;;;2.00;;
2299;SDS011;1158;48.750;9.078;2023-04-24T03:13:12;3.77;;;1.50;;
2299;SDS011;1158;48.750;9.078;2023-04-24T03:15:38;7.23;;;2.10;;
2299;SDS011;1158;48.750;9.078;2023-04-24T03:18:05;7.77;;;1.80;;
2299;SDS011;1158;48.750;9.078;2023-04-24T03:20:32;5.90;;;1.70;;
2299;SDS011;1158;48.750;9.078;2023-04-24T03:23:00;3.53;;;1.60;;
2299;SDS011;1158;48.750;9.078;2023-04-24T03:25:26;3.83;;;1.63;;
2299;SDS011;1158;48.750;9.078;2023-04-24T03:27:53;4.67;;;1.60;;
2299;SDS011;1158;48.750;9.078;2023-04-24T03:30:20;5.40;;;1.50;;
2299;SDS011;1158;48.750;9.078;2023-04-24T03:32:47;6.20;;;1.80;;
2299;SDS011;1158;48.750;9.078;2023-04-24T03:35:13;3.13;;;1.80;;
2299;SDS011;1158;48.750;9.078;2023-04-24T03:37:40;4.10;;;1.80;;
2299;SDS011;1158;48.750;9.078;2023-04-24T03:40:08;2.63;;;1.70;;
2299;SDS011;1158;48.750;9.078;2023-04-24T03:42:35;5.60;;;1.70;;
2299;SDS011;1158;48.750;9.078;2023-04-24T03:45:02;2.60;;;1.50;;
2299;SDS011;1158;48.750;9.078;2023-04-24T03:47:29;5.10;;;1.77;;
2299;SDS011;1158;48.750;9.078;2023-04-24T03:49:56;2.70;;;1.43;;
2299;SDS011;1158;48.750;9.078;2023-04-24T03:52:23;4.73;;;1.50;;
2299;SDS011;1158;48.750;9.078;2023-04-24T03:54:49;2.90;;;1.40;;
2299;SDS011;1158;48.750;9.078;2023-04-24T03:57:17;3.67;;;1.77;;
2299;SDS011;1158;48.750;9.078;2023-04-24T03:59:44;2.60;;;1.50;;
2299;SDS011;1158;48.750;9.078;2023-04-24T04:02:11;4.17;;;2.03;;
2299;SDS011;1158;48.750;9.078;2023-04-24T04:04:38;3.10;;;1.50;;
2299;SDS011;1158;48.750;9.078;2023-04-24T04:07:04;4.43;;;1.63;;
2299;SDS011;1158;48.750;9.078;2023-04-24T04:09:31;1.80;;;1.20;;
2299;SDS011;1158;48.750;9.078;2023-04-24T04:11:58;4.57;;;1.87;;
2299;SDS011;1158;48.750;9.078;2023-04-24T04:14:27;4.57;;;1.30;;
2299;SDS011;1158;48.750;9.078;2023-04-24T04:16:53;4.53;;;1.60;;
2299;SDS011;1158;48.750;9.078;2023-04-24T04:19:20;5.20;;;1.67;;
2299;SDS011;1158;48.750;9.078;2023-04-24T04:21:47;2.20;;;1.47;;
2299;SDS011;1158;48.750;9.078;2023-04-24T04:24:17;3.37;;;1.87;;
2299;SDS011;1158;48.750;9.078;2023-04-24T04:26:45;2.87;;;1.80;;
2299;SDS011;1158;48.750;9.078;2023-04-24T04:29:12;4.93;;;1.80;;
2299;SDS011;1158;48.750;9.078;2023-04-24T04:31:40;4.17;;;2.10;;
2299;SDS011;1158;48.750;9.078;2023-04-24T04:34:07;3.17;;;2.00;;
2299;SDS011;1158;48.750;9.078;2023-04-24T04:36:34;2.63;;;2.00;;
2299;SDS011;1158;48.750;9.078;2023-04-24T04:39:01;2.87;;;1.83;;
2299;SDS011;1158;48.750;9.078;2023-04-24T04:41:28;6.57;;;2.60;;
2299;SDS011;1158;48.750;9.078;2023-04-24T04:43:55;2.73;;;1.87;;
2299;SDS011;1158;48.750;9.078;2023-04-24T04:46:23;3.63;;;2.50;;
2299;SDS011;1158;48.750;9.078;2023-04-24T04:48:52;3.43;;;2.60;;
2299;SDS011;1158;48.750;9.078;2023-04-24T04:51:19;3.30;;;2.30;;
2299;SDS011;1158;48.750;9.078;2023-04-24T04:53:45;2.80;;;2.23;;
2299;SDS011;1158;48.750;9.078;2023-04-24T04:56:12;3.60;;;2.47;;
2299;SDS011;1158;48.750;9.078;2023-04-24T04:58:39;4.23;;;2.50;;
2299;SDS011;1158;48.750;9.078;2023-04-24T05:01:05;5.20;;;2.50;;
2299;SDS011;1158;48.750;9.078;2023-04-24T05:03:33;3.57;;;2.30;;
2299;SDS011;1158;48.750;9.078;2023-04-24T05:06:01;3.30;;;2.23;;
2299;SDS011;1158;48.750;9.078;2023-04-24T05:08:27;3.57;;;2.37;;
2299;SDS011;1158;48.750;9.078;2023-04-24T05:10:54;3.40;;;2.60;;
2299;SDS011;1158;48.750;9.078;2023-04-24T05:13:21;4.10;;;2.40;;
2299;SDS011;1158;48.750;9.078;2023-04-24T05:15:53;4.90;;;2.33;;
2299;SDS011;1158;48.750;9.078;2023-04-24T05:18:26;3.60;;;2.70;;
2299;SDS011;1158;48.750;9.078;2023-04-24T05:20:53;3.90;;;2.57;;
2299;SDS011;1158;48.750;9.078;2023-04-24T05:23:21;4.27;;;2.40;;
2299;SDS011;1158;48.750;9.078;2023-04-24T05:25:48;4.23;;;2.90;;
2299;SDS011;1158;48.750;9.078;2023-04-24T05:28:15;3.73;;;2.60;;
2299;SDS011;1158;48.750;9.078;2023-04-24T05:30:42;4.40;;;2.53;;
2299;SDS011;1158;48.750;9.078;2023-04-24T05:33:08;2.80;;;2.10;;
2299;SDS011;1158;48.750;9.078;2023-04-24T05:35:35;2.80;;;2.43;;
2299;SDS011;1158;48.750;9.078;2023-04-24T05:38:02;3.50;;;2.67;;
2299;SDS011;1158;48.750;9.078;2023-04-24T05:40:30;4.77;;;2.70;;
2299;SDS011;1158;48.750;9.078;2023-04-24T05:42:57;4.50;;;2.50;;
2299;SDS011;1158;48.750;9.078;2023-04-24T05:45:23;5.60;;;2.87;;
2299;SDS011;1158;48.750;9.078;2023-04-24T05:47:50;4.87;;;2.90;;
2299;SDS011;1158;48.750;9.078;2023-04-24T05:50:17;8.67;;;3.97;;
2299;SDS011;1158;48.750;9.078;2023-04-24T05:52:44;6.20;;;3.30;;
2299;SDS011;1158;48.750;9.078;2023-04-24T05:55:11;6.97;;;3.03;;
2299;SDS011;1158;48.750;9.078;2023-04-24T05:57:39;5.70;;;3.00;;
2299;SDS011;1158;48.750;9.078;2023-04-24T06:00:06;3.60;;;2.63;;
2299;SDS011;1158;48.750;9.078;2023-04-24T06:02:34;4.67;;;3.47;;
2299;SDS011;1158;48.750;9.078;2023-04-24T06:05:01;8.40;;;3.50;;
2299;SDS011;1158;48.750;9.078;2023-04-24T06:07:27;4.20;;;2.70;;
2299;SDS011;1158;48.750;9.078;2023-04-24T06:09:54;5.60;;;3.87;;
2299;SDS011;1158;48.750;9.078;2023-04-24T06:12:21;10.73;;;3.97;;
2299;SDS011;1158;48.750;9.078;2023-04-24T06:14:49;5.27;;;3.87;;
2299;SDS011;1158;48.750;9.078;2023-04-24T06:17:16;6.00;;;3.67;;
2299;SDS011;1158;48.750;9.078;2023-04-24T06:19:43;4.80;;;2.87;;
2299;SDS011;1158;48.750;9.078;2023-04-24T06:22:10;3.20;;;2.33;;
2299;SDS011;1158;48.750;9.078;2023-04-24T06:24:36;3.43;;;2.20;;
2299;SDS011;1158;48.750;9.078;2023-04-24T06:27:03;2.63;;;1.97;;
2299;SDS011;1158;48.750;9.078;2023-04-24T06:29:30;3.23;;;1.90;;
2299;SDS011;1158;48.750;9.078;2023-04-24T06:31:58;3.70;;;1.90;;
2299;SDS011;1158;48.750;9.078;2023-04-24T06:34:25;3.10;;;1.80;;
2299;SDS011;1158;48.750;9.078;2023-04-24T06:36:51;3.33;;;2.07;;
2299;SDS011;1158;48.750;9.078;2023-04-24T06:39:18;3.20;;;2.30;;
2299;SDS011;1158;48.750;9.078;2023-04-24T06:41:45;2.90;;;2.13;;
2299;SDS011;1158;48.750;9.078;2023-04-24T06:44:12;4.27;;;2.00;;
2299;SDS011;1158;48.750;9.078;2023-04-24T06:46:39;3.67;;;2.17;;
2299;SDS011;1158;48.750;9.078;2023-04-24T06:49:07;5.90;;;2.00;;
2299;SDS011;1158;48.750;9.078;2023-04-24T06:51:35;3.23;;;2.13;;
2299;SDS011;1158;48.750;9.078;2023-04-24T06:54:02;3.30;;;2.00;;
2299;SDS011;1158;48.750;9.078;2023-04-24T06:56:29;3.33;;;2.03;;
2299;SDS011;1158;48.750;9.078;2023-04-24T06:58:55;3.30;;;2.70;;
2299;SDS011;1158;48.750;9.078;2023-04-24T07:01:22;4.27;;;2.17;;
2299;SDS011;1158;48.750;9.078;2023-04-24T07:03:49;2.63;;;2.23;;
2299;SDS011;1158;48.750;9.078;2023-04-24T07:06:17;3.77;;;2.40;;
2299;SDS011;1158;48.750;9.078;2023-04-24T07:08:46;2.87;;;2.27;;
2299;SDS011;1158;48.750;9.078;2023-04-24T07:11:13;2.83;;;2.00;;
2299;SDS011;1158;48.750;9.078;2023-04-24T07:13:39;6.73;;;2.53;;
2299;SDS011;1158;48.750;9.078;2023-04-24T07:16:06;4.67;;;2.63;;
2299;SDS011;1158;48.750;9.078;2023-04-24T07:18:33;3.93;;;2.50;;
2299;SDS011;1158;48.750;9.078;2023-04-24T07:21:01;4.03;;;2.30;;
2299;SDS011;1158;48.750;9.078;2023-04-24T07:23:29;3.07;;;2.10;;
2299;SDS011;1158;48.750;9.078;2023-04-24T07:25:56;3.03;;;1.93;;
2299;SDS011;1158;48.750;9.078;2023-04-24T07:28:23;3.77;;;2.20;;
2299;SDS011;1158;48.750;9.078;2023-04-24T07:30:50;2.37;;;1.60;;
2299;SDS011;1158;48.750;9.078;2023-04-24T07:33:18;3.63;;;2.00;;
2299;SDS011;1158;48.750;9.078;2023-04-24T07:35:45;6.60;;;2.87;;
2299;SDS011;1158;48.750;9.078;2023-04-24T07:38:12;3.93;;;2.53;;
2299;SDS011;1158;48.750;9.078;2023-04-24T07:40:40;5.60;;;2.00;;
2299;SDS011;1158;48.750;9.078;2023-04-24T07:43:07;7.50;;;1.93;;
2299;SDS011;1158;48.750;9.078;2023-04-24T07:45:34;4.20;;;2.27;;
2299;SDS011;1158;48.750;9.078;2023-04-24T07:48:02;3.70;;;1.80;;
2299;SDS011;1158;48.750;9.078;2023-04-24T07:50:29;2.60;;;1.90;;
2299;SDS011;1158;48.750;9.078;2023-04-24T07:52:55;3.60;;;1.57;;
2299;SDS011;1158;48.750;9.078;2023-04-24T07:55:22;5.40;;;1.90;;
2299;SDS011;1158;48.750;9.078;2023-04-24T07:57:50;8.03;;;2.00;;
2299;SDS011;1158;48.750;9.078;2023-04-24T08:00:17;3.63;;;1.60;;
2299;SDS011;1158;48.750;9.078;2023-04-24T08:02:44;3.47;;;2.10;;
2299;SDS011;1158;48.750;9.078;2023-04-24T08:05:11;3.10;;;1.83;;
2299;SDS011;1158;48.750;9.078;2023-04-24T08:07:38;3.13;;;2.20;;
2299;SDS011;1158;48.750;9.078;2023-04-24T08:10:07;2.73;;;1.90;;
2299;SDS011;1158;48.750;9.078;2023-04-24T08:12:35;2.90;;;2.10;;
2299;SDS011;1158;48.750;9.078;2023-04-24T08:15:04;6.20;;;2.07;;
2299;SDS011;1158;48.750;9.078;2023-04-24T08:17:32;4.40;;;1.87;;
2299;SDS011;1158;48.750;9.078;2023-04-24T08:19:59;3.70;;;1.80;;
2299;SDS011;1158;48.750;9.078;2023-04-24T08:22:27;3.10;;;1.63;;
2299;SDS011;1158;48.750;9.078;2023-04-24T08:24:54;2.60;;;1.70;;
2299;SDS011;1158;48.750;9.078;2023-04-24T08:27:22;3.73;;;2.07;;
2299;SDS011;1158;48.750;9.078;2023-04-24T08:29:49;4.10;;;1.67;;
2299;SDS011;1158;48.750;9.078;2023-04-24T08:32:17;4.00;;;1.90;;
2299;SDS011;1158;48.750;9.078;2023-04-24T08:34:43;2.33;;;1.77;;
2299;SDS011;1158;48.750;9.078;2023-04-24T08:37:10;6.53;;;2.20;;
2299;SDS011;1158;48.750;9.078;2023-04-24T08:39:37;2.60;;;1.90;;
2299;SDS011;1158;48.750;9.078;2023-04-24T08:42:04;3.33;;;2.07;;
2299;SDS011;1158;48.750;9.078;2023-04-24T08:44:33;3.67;;;2.17;;
2299;SDS011;1158;48.750;9.078;2023-04-24T08:47:00;4.13;;;2.00;;
2299;SDS011;1158;48.750;9.078;2023-04-24T08:49:29;3.97;;;1.90;;
2299;SDS011;1158;48.750;9.078;2023-04-24T08:51:57;7.63;;;1.90;;
2299;SDS011;1158;48.750;9.078;2023-04-24T08:54:24;3.27;;;1.73;;
2299;SDS011;1158;48.750;9.078;2023-04-24T08:56:51;3.20;;;1.83;;
2299;SDS011;1158;48.750;9.078;2023-04-24T08:59:22;5.43;;;2.37;;
2299;SDS011;1158;48.750;9.078;2023-04-24T09:01:49;2.97;;;1.60;;
2299;SDS011;1158;48.750;9.078;2023-04-24T09:04:18;3.93;;;1.80;;
2299;SDS011;1158;48.750;9.078;2023-04-24T09:06:50;3.20;;;1.97;;
2299;SDS011;1158;48.750;9.078;2023-04-24T09:09:17;3.53;;;2.50;;
2299;SDS011;1158;48.750;9.078;2023-04-24T09:11:45;3.80;;;2.37;;
2299;SDS011;1158;48.750;9.078;2023-04-24T09:14:18;3.20;;;2.20;;
2299;SDS011;1158;48.750;9.078;2023-04-24T09:16:45;4.60;;;2.13;;
2299;SDS011;1158;48.750;9.078;2023-04-24T09:19:12;6.40;;;2.43;;
2299;SDS011;1158;48.750;9.078;2023-04-24T09:21:39;3.10;;;1.97;;
2299;SDS011;1158;48.750;9.078;2023-04-24T09:24:14;3.70;;;2.10;;
2299;SDS011;1158;48.750;9.078;2023-04-24T09:26:42;3.20;;;2.00;;
2299;SDS011;1158;48.750;9.078;2023-04-24T09:29:13;3.83;;;1.90;;
2299;SDS011;1158;48.750;9.078;2023-04-24T09:31:41;3.40;;;2.00;;
2299;SDS011;1158;48.750;9.078;2023-04-24T09:34:08;3.97;;;1.93;;
2299;SDS011;1158;48.750;9.078;2023-04-24T09:36:36;2.50;;;1.80;;
2299;SDS011;1158;48.750;9.078;2023-04-24T09:39:04;3.33;;;2.03;;
2299;SDS011;1158;48.750;9.078;2023-04-24T09:41:34;3.50;;;2.50;;
2299;SDS011;1158;48.750;9.078;2023-04-24T09:44:10;2.90;;;2.10;;
2299;SDS011;1158;48.750;9.078;2023-04-24T09:46:39;3.97;;;2.03;;
2299;SDS011;1158;48.750;9.078;2023-04-24T09:49:10;3.60;;;1.70;;
2299;SDS011;1158;48.750;9.078;2023-04-24T09:51:38;3.00;;;1.97;;
2299;SDS011;1158;48.750;9.078;2023-04-24T09:54:11;4.40;;;1.93;;
2299;SDS011;1158;48.750;9.078;2023-04-24T09:56:43;2.40;;;1.60;;
2299;SDS011;1158;48.750;9.078;2023-04-24T09:59:11;4.90;;;1.33;;
2299;SDS011;1158;48.750;9.078;2023-04-24T10:01:38;4.67;;;1.67;;
2299;SDS011;1158;48.750;9.078;2023-04-24T10:04:14;3.20;;;1.60;;
2299;SDS011;1158;48.750;9.078;2023-04-24T10:06:42;2.00;;;1.37;;
2299;SDS011;1158;48.750;9.078;2023-04-24T10:09:10;4.80;;;1.40;;
2299;SDS011;1158;48.750;9.078;2023-04-24T10:11:39;2.40;;;1.40;;
2299;SDS011;1158;48.750;9.078;2023-04-24T10:14:16;2.97;;;1.60;;
2299;SDS011;1158;48.750;9.078;2023-04-24T10:16:44;2.60;;;1.50;;
2299;SDS011;1158;48.750;9.078;2023-04-24T10:19:12;5.00;;;1.57;;
2299;SDS011;1158;48.750;9.078;2023-04-24T10:21:40;5.77;;;1.47;;
2299;SDS011;1158;48.750;9.078;2023-04-24T10:24:11;2.80;;;1.70;;
2299;SDS011;1158;48.750;9.078;2023-04-24T10:26:38;7.40;;;1.90;;
2299;SDS011;1158;48.750;9.078;2023-04-24T10:29:08;3.17;;;1.70;;
2299;SDS011;1158;48.750;9.078;2023-04-24T10:31:37;3.50;;;1.60;;
2299;SDS011;1158;48.750;9.078;2023-04-24T10:34:05;4.07;;;1.83;;
2299;SDS011;1158;48.750;9.078;2023-04-24T10:36:32;3.80;;;1.97;;
2299;SDS011;1158;48.750;9.078;2023-04-24T10:39:01;2.27;;;1.43;;
2299;SDS011;1158;48.750;9.078;2023-04-24T10:41:29;2.67;;;1.70;;
2299;SDS011;1158;48.750;9.078;2023-04-24T10:44:07;2.33;;;1.50;;
2299;SDS011;1158;48.750;9.078;2023-04-24T10:46:35;2.90;;;1.67;;
2299;SDS011;1158;48.750;9.078;2023-04-24T10:49:03;3.40;;;1.67;;
2299;SDS011;1158;48.750;9.078;2023-04-24T10:51:44;4.40;;;1.60;;
2299;SDS011;1158;48.750;9.078;2023-04-24T10:54:22;2.53;;;1.53;;
2299;SDS011;1158;48.750;9.078;2023-04-24T10:56:52;4.70;;;1.40;;
2299;SDS011;1158;48.750;9.078;2023-04-24T10:59:25;4.23;;;2.27;;
2299;SDS011;1158;48.750;9.078;2023-04-24T11:01:53;3.40;;;1.67;;
2299;SDS011;1158;48.750;9.078;2023-04-24T11:04:30;4.33;;;1.70;;
2299;SDS011;1158;48.750;9.078;2023-04-24T11:06:57;2.40;;;1.50;;
2299;SDS011;1158;48.750;9.078;2023-04-24T11:09:26;2.67;;;1.70;;
2299;SDS011;1158;48.750;9.078;2023-04-24T11:12:02;2.73;;;1.47;;
2299;SDS011;1158;48.750;9.078;2023-04-24T11:14:59;2.80;;;1.63;;
2299;SDS011;1158;48.750;9.078;2023-04-24T11:17:28;4.10;;;1.97;;
2299;SDS011;1158;48.750;9.078;2023-04-24T11:20:00;2.80;;;1.70;;
2299;SDS011;1158;48.750;9.078;2023-04-24T11:22:28;3.23;;;1.67;;
2299;SDS011;1158;48.750;9.078;2023-04-24T11:24:59;5.80;;;2.53;;
2299;SDS011;1158;48.750;9.078;2023-04-24T11:27:28;3.80;;;1.53;;
2299;SDS011;1158;48.750;9.078;2023-04-24T11:30:00;2.30;;;1.63;;
2299;SDS011;1158;48.750;9.078;2023-04-24T11:32:29;2.30;;;1.60;;
2299;SDS011;1158;48.750;9.078;2023-04-24T11:35:00;2.57;;;1.60;;
2299;SDS011;1158;48.750;9.078;2023-04-24T11:37:29;4.50;;;1.83;;
2299;SDS011;1158;48.750;9.078;2023-04-24T11:39:59;4.57;;;1.90;;
2299;SDS011;1158;48.750;9.078;2023-04-24T11:42:26;2.50;;;1.60;;
2299;SDS011;1158;48.750;9.078;2023-04-24T11:44:54;3.07;;;2.20;;
2299;SDS011;1158;48.750;9.078;2023-04-24T11:47:28;2.90;;;2.23;;
2299;SDS011;1158;48.750;9.078;2023-04-24T11:49:56;7.20;;;1.77;;
2299;SDS011;1158;48.750;9.078;2023-04-24T11:52:22;3.20;;;2.10;;
2299;SDS011;1158;48.750;9.078;2023-04-24T11:54:49;6.93;;;2.20;;
2299;SDS011;1158;48.750;9.078;2023-04-24T11:57:16;3.40;;;1.97;;
2299;SDS011;1158;48.750;9.078;2023-04-24T11:59:45;2.47;;;1.63;;
2299;SDS011;1158;48.750;9.078;2023-04-24T12:02:19;3.90;;;1.90;;
2299;SDS011;1158;48.750;9.078;2023-04-24T12:04:48;3.90;;;1.60;;
2299;SDS011;1158;48.750;9.078;2023-04-24T12:07:16;1.97;;;1.70;;
2299;SDS011;1158;48.750;9.078;2023-04-24T12:09:43;2.67;;;1.70;;
2299;SDS011;1158;48.750;9.078;2023-04-24T12:12:10;3.77;;;1.80;;
2299;SDS011;1158;48.750;9.078;2023-04-24T12:14:42;3.20;;;1.73;;
2299;SDS011;1158;48.750;9.078;2023-04-24T12:17:10;2.23;;;1.60;;
2299;SDS011;1158;48.750;9.078;2023-04-24T12:19:36;3.03;;;2.10;;
2299;SDS011;1158;48.750;9.078;2023-04-24T12:22:05;4.77;;;2.00;;
2299;SDS011;1158;48.750;9.078;2023-04-24T12:24:32;5.17;;;2.47;;
2299;SDS011;1158;48.750;9.078;2023-04-24T12:26:59;3.10;;;1.80;;
2299;SDS011;1158;48.750;9.078;2023-04-24T12:29:26;4.67;;;2.20;;
2299;SDS011;1158;48.750;9.078;2023-04-24T12:31:53;2.60;;;1.73;;
2299;SDS011;1158;48.750;9.078;2023-04-24T12:34:22;7.03;;;2.20;;
2299;SDS011;1158;48.750;9.078;2023-04-24T12:36:50;4.07;;;2.00;;
2299;SDS011;1158;48.750;9.078;2023-04-24T12:39:19;3.20;;;1.97;;
2299;SDS011;1158;48.750;9.078;2023-04-24T12:41:54;3.83;;;2.10;;
2299;SDS011;1158;48.750;9.078;2023-04-24T12:44:29;5.90;;;1.80;;
2299;SDS011;1158;48.750;9.078;2023-04-24T12:46:56;2.90;;;2.00;;
2299;SDS011;1158;48.750;9.078;2023-04-24T12:49:23;4.37;;;1.83;;
2299;SDS011;1158;48.750;9.078;2023-04-24T12:51:50;2.43;;;1.33;;
2299;SDS011;1158;48.750;9.078;2023-04-24T12:54:19;2.60;;;1.73;;
2299;SDS011;1158;48.750;9.078;2023-04-24T12:56:45;2.20;;;1.47;;
2299;SDS011;1158;48.750;9.078;2023-04-24T12:59:12;2.27;;;1.60;;
2299;SDS011;1158;48.750;9.078;2023-04-24T13:01:39;5.03;;;1.80;;
2299;SDS011;1158;48.750;9.078;2023-04-24T13:04:06;2.70;;;2.27;;
2299;SDS011;1158;48.750;9.078;2023-04-24T13:06:33;2.93;;;1.80;;
2299;SDS011;1158;48.750;9.078;2023-04-24T13:09:00;2.80;;;2.10;;
2299;SDS011;1158;48.750;9.078;2023-04-24T13:11:28;4.17;;;2.00;;
2299;SDS011;1158;48.750;9.078;2023-04-24T13:13:55;3.10;;;2.43;;
2299;SDS011;1158;48.750;9.078;2023-04-24T13:16:22;2.77;;;1.97;;
2299;SDS011;1158;48.750;9.078;2023-04-24T13:18:48;2.93;;;1.87;;
2299;SDS011;1158;48.750;9.078;2023-04-24T13:21:15;4.50;;;2.10;;
2299;SDS011;1158;48.750;9.078;2023-04-24T13:23:42;2.53;;;1.90;;
2299;SDS011;1158;48.750;9.078;2023-04-24T13:26:09;3.40;;;2.37;;
2299;SDS011;1158;48.750;9.078;2023-04-24T13:28:37;3.60;;;1.90;;
2299;SDS011;1158;48.750;9.078;2023-04-24T13:31:04;2.90;;;2.00;;
2299;SDS011;1158;48.750;9.078;2023-04-24T13:33:31;3.37;;;2.20;;
2299;SDS011;1158;48.750;9.078;2023-04-24T13:35:58;4.13;;;2.17;;
2299;SDS011;1158;48.750;9.078;2023-04-24T13:38:24;2.60;;;1.90;;
2299;SDS011;1158;48.750;9.078;2023-04-24T13:40:51;2.47;;;1.73;;
2299;SDS011;1158;48.750;9.078;2023-04-24T13:43:18;3.90;;;2.10;;
2299;SDS011;1158;48.750;9.078;2023-04-24T13:45:46;3.00;;;2.17;;
2299;SDS011;1158;48.750;9.078;2023-04-24T13:48:13;3.50;;;2.10;;
2299;SDS011;1158;48.750;9.078;2023-04-24T13:50:40;3.50;;;2.60;;
2299;SDS011;1158;48.750;9.078;2023-04-24T13:53:07;4.60;;;2.30;;
2299;SDS011;1158;48.750;9.078;2023-04-24T13:55:34;3.67;;;2.60;;
2299;SDS011;1158;48.750;9.078;2023-04-24T13:58:01;5.10;;;2.27;;
2299;SDS011;1158;48.750;9.078;2023-04-24T14:00:28;3.03;;;2.40;;
2299;SDS011;1158;48.750;9.078;2023-04-24T14:02:56;3.10;;;2.43;;
2299;SDS011;1158;48.750;9.078;2023-04-24T14:05:22;6.80;;;2.20;;
2299;SDS011;1158;48.750;9.078;2023-04-24T14:07:50;3.20;;;2.43;;
2299;SDS011;1158;48.750;9.078;2023-04-24T14:10:17;5.07;;;2.80;;
2299;SDS011;1158;48.750;9.078;2023-04-24T14:12:44;8.13;;;2.83;;
2299;SDS011;1158;48.750;9.078;2023-04-24T14:15:10;3.80;;;2.30;;
2299;SDS011;1158;48.750;9.078;2023-04-24T14:17:38;6.10;;;2.27;;
2299;SDS011;1158;48.750;9.078;2023-04-24T14:20:07;2.47;;;1.90;;
2299;SDS011;1158;48.750;9.078;2023-04-24T14:22:34;3.73;;;2.30;;
2299;SDS011;1158;48.750;9.078;2023-04-24T14:25:01;3.67;;;2.20;;
2299;SDS011;1158;48.750;9.078;2023-04-24T14:27:28;3.10;;;1.90;;
2299;SDS011;1158;48.750;9.078;2023-04-24T14:29:55;2.60;;;2.00;;
2299;SDS011;1158;48.750;9.078;2023-04-24T14:32:22;3.67;;;2.03;;
2299;SDS011;1158;48.750;9.078;2023-04-24T14:34:48;3.30;;;2.10;;
2299;SDS011;1158;48.750;9.078;2023-04-24T14:37:16;2.57;;;1.87;;
2299;SDS011;1158;48.750;9.078;2023-04-24T14:39:44;4.37;;;1.80;;
2299;SDS011;1158;48.750;9.078;2023-04-24T14:42:11;5.63;;;2.10;;
2299;SDS011;1158;48.750;9.078;2023-04-24T14:44:38;5.37;;;2.20;;
2299;SDS011;1158;48.750;9.078;2023-04-24T14:47:05;4.70;;;2.47;;
2299;SDS011;1158;48.750;9.078;2023-04-24T14:49:31;4.30;;;2.77;;
2299;SDS011;1158;48.750;9.078;2023-04-24T14:51:58;4.60;;;2.47;;
2299;SDS011;1158;48.750;9.078;2023-04-24T14:54:26;5.53;;;2.90;;
2299;SDS011;1158;48.750;9.078;2023-04-24T14:56:53;3.40;;;2.20;;
2299;SDS011;1158;48.750;9.078;2023-04-24T14:59:21;3.60;;;2.30;;
2299;SDS011;1158;48.750;9.078;2023-04-24T15:01:48;3.50;;;2.40;;
2299;SDS011;1158;48.750;9.078;2023-04-24T15:04:16;5.30;;;2.70;;
2299;SDS011;1158;48.750;9.078;2023-04-24T15:06:43;4.37;;;2.27;;
2299;SDS011;1158;48.750;9.078;2023-04-24T15:09:10;4.37;;;3.07;;
2299;SDS011;1158;48.750;9.078;2023-04-24T15:11:38;3.50;;;2.73;;
2299;SDS011;1158;48.750;9.078;2023-04-24T15:14:04;4.03;;;2.70;;
2299;SDS011;1158;48.750;9.078;2023-04-24T15:16:31;4.80;;;2.60;;
2299;SDS011;1158;48.750;9.078;2023-04-24T15:18:58;3.83;;;2.27;;